createdAt,value
2019-05-13T00:00:44.694Z,2.70
2019-05-13T00:03:13.654Z,2.67
2019-05-13T00:05:44.376Z,2.90
2019-05-13T00:08:13.932Z,2.50
2019-05-13T00:10:43.674Z,3.17
2019-05-13T00:13:14.487Z,2.97
2019-05-13T00:15:44.273Z,2.83
2019-05-13T00:18:14.397Z,2.50
2019-05-13T00:20:44.297Z,3.10
2019-05-13T00:23:14.282Z,2.67
2019-05-13T00:25:44.503Z,2.77
2019-05-13T00:28:14.422Z,2.57
2019-05-13T00:30:44.451Z,3.00
2019-05-13T00:33:13.970Z,2.50
2019-05-13T00:35:44.330Z,2.90
2019-05-13T00:38:14.094Z,3.50
2019-05-13T00:40:44.308Z,2.60
2019-05-13T00:43:14.351Z,2.30
2019-05-13T00:45:44.386Z,2.67
2019-05-13T00:48:14.320Z,3.10
2019-05-13T00:50:44.320Z,2.90
2019-05-13T00:53:13.415Z,2.73
2019-05-13T00:55:44.213Z,2.60
2019-05-13T00:58:13.979Z,2.73
2019-05-13T01:00:44.477Z,2.13
2019-05-13T01:03:14.202Z,2.23
2019-05-13T01:05:44.467Z,2.30
2019-05-13T01:08:14.563Z,2.73
2019-05-13T01:10:45.184Z,2.50
2019-05-13T01:13:13.814Z,2.30
2019-05-13T01:15:44.383Z,2.10
2019-05-13T01:18:14.208Z,2.20
2019-05-13T01:20:43.675Z,2.30
2019-05-13T01:23:14.113Z,2.30
2019-05-13T01:25:44.509Z,2.27
2019-05-13T01:28:13.568Z,2.43
2019-05-13T01:30:43.842Z,2.50
2019-05-13T01:33:14.530Z,2.70
2019-05-13T01:35:44.515Z,2.13
2019-05-13T01:38:13.576Z,2.27
2019-05-13T01:40:43.930Z,2.20
2019-05-13T01:43:14.391Z,2.60
2019-05-13T01:45:44.114Z,2.77
2019-05-13T01:48:14.141Z,2.23
2019-05-13T01:50:44.521Z,1.90
2019-05-13T01:53:14.461Z,2.30
2019-05-13T01:55:44.325Z,2.50
2019-05-13T01:58:14.604Z,2.27
2019-05-13T02:00:44.315Z,2.60
2019-05-13T02:03:14.417Z,2.80
2019-05-13T02:05:44.351Z,2.30
2019-05-13T02:08:14.325Z,2.10
2019-05-13T02:10:50.841Z,2.33
2019-05-13T02:13:19.311Z,2.30
2019-05-13T02:15:47.806Z,2.33
2019-05-13T02:18:16.275Z,2.10
2019-05-13T02:20:44.840Z,2.30
2019-05-13T02:23:14.538Z,2.10
2019-05-13T02:25:43.609Z,1.97
2019-05-13T02:28:13.842Z,2.40
2019-05-13T02:30:45.456Z,2.43
2019-05-13T02:33:13.379Z,2.73
2019-05-13T02:35:43.447Z,2.70
2019-05-13T02:38:22.792Z,2.23
2019-05-13T02:40:43.258Z,2.63
2019-05-13T02:43:13.602Z,2.20
2019-05-13T02:45:43.168Z,1.90
2019-05-13T02:48:12.592Z,2.53
2019-05-13T02:50:44.133Z,2.13
2019-05-13T02:53:13.569Z,2.30
2019-05-13T02:55:43.697Z,2.27
2019-05-13T02:58:12.599Z,2.10
2019-05-13T03:00:44.107Z,2.40
2019-05-13T03:03:12.863Z,2.60
2019-05-13T03:05:42.894Z,2.73
2019-05-13T03:08:12.817Z,2.37
2019-05-13T03:10:43.443Z,2.30
2019-05-13T03:13:12.618Z,2.33
2019-05-13T03:15:42.994Z,2.30
2019-05-13T03:18:13.393Z,2.13
2019-05-13T03:20:43.135Z,2.83
2019-05-13T03:23:13.391Z,2.57
2019-05-13T03:25:42.925Z,2.03
2019-05-13T03:28:13.530Z,2.10
2019-05-13T03:30:45.663Z,2.40
2019-05-13T03:33:18.764Z,2.27
2019-05-13T03:35:45.424Z,1.90
2019-05-13T03:38:12.962Z,2.63
2019-05-13T03:40:42.749Z,2.20
2019-05-13T03:43:12.869Z,2.47
2019-05-13T03:45:43.292Z,2.30
2019-05-13T03:48:13.111Z,2.80
2019-05-13T03:50:43.378Z,2.77
2019-05-13T03:53:13.038Z,2.40
2019-05-13T03:55:43.412Z,2.37
2019-05-13T03:58:13.286Z,2.70
2019-05-13T04:00:42.829Z,2.20
2019-05-13T04:03:13.536Z,2.60
2019-05-13T04:05:43.669Z,2.37
2019-05-13T04:08:13.259Z,2.30
2019-05-13T04:10:42.442Z,2.67
2019-05-13T04:13:12.412Z,2.60
2019-05-13T04:15:42.765Z,2.23
2019-05-13T04:18:12.535Z,2.80
2019-05-13T04:20:42.353Z,2.30
2019-05-13T04:23:12.916Z,2.63
2019-05-13T04:25:44.721Z,2.47
2019-05-13T04:28:13.405Z,2.67
2019-05-13T04:30:43.562Z,2.50
2019-05-13T04:33:13.947Z,2.70
2019-05-13T04:35:42.833Z,3.00
2019-05-13T04:38:13.193Z,2.57
2019-05-13T04:40:42.572Z,2.40
2019-05-13T04:43:13.011Z,3.03
2019-05-13T04:45:43.056Z,2.60
2019-05-13T04:48:12.742Z,5.83
2019-05-13T04:50:43.183Z,10.90
2019-05-13T04:53:13.644Z,7.70
2019-05-13T04:55:43.299Z,7.37
2019-05-13T04:58:12.979Z,4.77
2019-05-13T05:01:13.983Z,4.23
2019-05-13T05:03:57.821Z,4.03
2019-05-13T05:06:44.385Z,3.70
2019-05-13T05:09:18.924Z,2.80
2019-05-13T05:12:02.390Z,2.30
2019-05-13T05:14:52.959Z,2.50
2019-05-13T05:17:32.622Z,1.90
2019-05-13T05:20:27.467Z,2.83
2019-05-13T05:23:22.610Z,2.20
2019-05-13T05:26:19.268Z,2.27
2019-05-13T05:28:56.313Z,2.53
2019-05-13T05:31:33.737Z,2.13
2019-05-13T05:34:14.120Z,2.73
2019-05-13T05:36:57.701Z,2.70
2019-05-13T05:39:27.549Z,2.50
2019-05-13T05:41:57.941Z,2.43
2019-05-13T05:44:29.181Z,2.00
2019-05-13T05:47:02.565Z,2.10
2019-05-13T05:49:32.099Z,2.00
2019-05-13T05:52:03.935Z,2.03
2019-05-13T05:54:35.159Z,1.70
2019-05-13T05:57:05.167Z,1.83
2019-05-13T05:59:34.371Z,2.10
2019-05-13T06:02:03.275Z,2.43
2019-05-13T06:04:32.616Z,1.87
2019-05-13T06:07:03.410Z,1.90
2019-05-13T06:09:32.431Z,3.20
2019-05-13T06:12:01.850Z,2.27
2019-05-13T06:14:32.629Z,2.00
2019-05-13T06:17:02.653Z,2.23
2019-05-13T06:19:31.914Z,1.70
2019-05-13T06:22:02.269Z,2.10
2019-05-13T06:24:31.470Z,2.37
2019-05-13T06:27:01.512Z,1.90
2019-05-13T06:29:31.709Z,1.83
2019-05-13T06:32:15.381Z,2.17
2019-05-13T06:34:32.618Z,1.83
2019-05-13T06:37:01.900Z,2.00
2019-05-13T06:39:31.640Z,2.03
2019-05-13T06:42:02.802Z,2.10
2019-05-13T06:44:31.646Z,2.30
2019-05-13T06:47:02.566Z,2.90
2019-05-13T06:49:32.281Z,1.83
2019-05-13T06:52:01.726Z,2.03
2019-05-13T06:54:32.927Z,2.20
2019-05-13T06:57:04.393Z,2.07
2019-05-13T06:59:31.719Z,2.27
2019-05-13T07:02:02.143Z,2.60
2019-05-13T07:04:32.619Z,2.10
2019-05-13T07:07:09.960Z,2.00
2019-05-13T07:09:32.441Z,2.07
2019-05-13T07:12:02.890Z,2.50
2019-05-13T07:14:32.447Z,2.10
2019-05-13T07:17:02.004Z,2.17
2019-05-13T07:19:32.362Z,2.00
2019-05-13T07:22:02.867Z,2.20
2019-05-13T07:24:32.262Z,2.23
2019-05-13T07:27:02.075Z,1.60
2019-05-13T07:29:32.487Z,1.70
2019-05-13T07:32:01.878Z,2.37
2019-05-13T07:34:33.419Z,2.13
2019-05-13T07:37:01.916Z,2.33
2019-05-13T07:39:32.774Z,2.20
2019-05-13T07:42:04.996Z,2.07
2019-05-13T07:44:32.439Z,2.27
2019-05-13T07:47:03.314Z,2.13
2019-05-13T07:49:31.643Z,2.10
2019-05-13T07:52:01.692Z,2.07
2019-05-13T07:54:33.043Z,2.20
2019-05-13T07:57:01.877Z,2.03
2019-05-13T07:59:31.816Z,2.07
2019-05-13T08:02:02.132Z,2.10
2019-05-13T08:04:33.407Z,2.10
2019-05-13T08:07:02.252Z,2.07
2019-05-13T08:09:31.957Z,2.10
2019-05-13T08:12:09.857Z,2.60
2019-05-13T08:14:32.776Z,2.80
2019-05-13T08:17:02.729Z,2.80
2019-05-13T08:19:32.532Z,2.33
2019-05-13T08:22:02.305Z,2.47
2019-05-13T08:24:31.579Z,2.57
2019-05-13T08:27:02.082Z,2.80
2019-05-13T08:29:32.706Z,2.17
2019-05-13T08:32:02.911Z,2.50
2019-05-13T08:34:32.842Z,2.20
2019-05-13T08:37:02.749Z,2.37
2019-05-13T08:39:35.797Z,2.03
2019-05-13T08:42:12.877Z,1.90
2019-05-13T08:44:32.337Z,2.02
2019-05-13T08:47:03.101Z,2.10
2019-05-13T08:49:32.596Z,2.25
2019-05-13T08:52:01.697Z,2.43
2019-05-13T08:54:32.844Z,1.90
2019-05-13T08:57:02.872Z,2.15
2019-05-13T08:59:31.907Z,2.40
2019-05-13T09:02:02.895Z,2.03
2019-05-13T09:04:31.556Z,2.00
2019-05-13T09:07:02.130Z,2.63
2019-05-13T09:09:31.606Z,2.63
2019-05-13T09:12:02.573Z,1.83
2019-05-13T09:14:32.425Z,1.90
2019-05-13T09:17:02.046Z,2.00
2019-05-13T09:19:32.163Z,2.10
2019-05-13T09:22:02.922Z,2.03
2019-05-13T09:24:37.230Z,1.80
2019-05-13T09:27:02.027Z,2.17
2019-05-13T09:29:32.277Z,1.65
2019-05-13T09:32:03.792Z,2.10
2019-05-13T09:34:32.815Z,1.87
2019-05-13T09:37:02.815Z,1.70
2019-05-13T09:42:02.908Z,1.42
2019-05-13T09:44:32.673Z,1.60
2019-05-13T09:47:02.509Z,1.45
2019-05-13T09:49:32.983Z,1.53
2019-05-13T09:52:02.001Z,1.72
2019-05-13T09:54:32.821Z,1.45
2019-05-13T09:57:01.635Z,1.70
2019-05-13T09:59:31.747Z,1.45
2019-05-13T10:02:02.949Z,1.50
2019-05-13T10:04:31.840Z,2.37
2019-05-13T10:07:02.080Z,1.40
2019-05-13T10:09:32.698Z,1.70
2019-05-13T10:12:03.115Z,1.20
2019-05-13T10:14:32.814Z,1.50
2019-05-13T10:17:06.105Z,1.52
2019-05-13T10:19:32.341Z,1.72
2019-05-13T10:22:01.286Z,1.65
2019-05-13T10:24:32.315Z,1.52
2019-05-13T10:27:02.363Z,1.40
2019-05-13T10:29:32.093Z,1.40
2019-05-13T10:32:02.763Z,1.62
2019-05-13T10:34:32.043Z,1.30
2019-05-13T10:37:02.795Z,1.40
2019-05-13T10:39:31.313Z,1.40
2019-05-13T10:42:03.145Z,1.60
2019-05-13T10:44:29.996Z,1.37
2019-05-13T10:46:58.467Z,1.62
2019-05-13T10:49:26.965Z,1.20
2019-05-13T10:51:55.438Z,1.30
2019-05-13T10:54:23.946Z,1.45
2019-05-13T10:56:54.175Z,1.37
2019-05-13T10:59:23.230Z,1.30
2019-05-13T11:01:51.767Z,1.40
2019-05-13T11:04:22.225Z,1.25
2019-05-13T11:06:52.511Z,1.57
2019-05-13T11:09:21.827Z,1.98
2019-05-13T11:11:52.759Z,1.30
2019-05-13T11:17:43.581Z,1.27
2019-05-13T11:19:23.233Z,1.37
2019-05-13T11:21:51.675Z,1.30
2019-05-13T11:24:22.100Z,1.20
2019-05-13T11:26:52.347Z,1.20
2019-05-13T11:29:22.963Z,1.20
2019-05-13T11:31:52.449Z,1.20
2019-05-13T11:34:22.168Z,1.37
2019-05-13T11:36:53.262Z,1.30
2019-05-13T11:39:21.895Z,1.30
2019-05-13T11:41:50.616Z,1.15
2019-05-13T11:44:19.146Z,1.12
2019-05-13T11:46:47.673Z,1.32
2019-05-13T11:49:16.174Z,1.27
2019-05-13T11:51:44.999Z,1.20
2019-05-13T11:54:14.208Z,1.30
2019-05-13T11:56:49.380Z,1.15
2019-05-13T11:59:14.052Z,1.40
2019-05-13T12:01:43.151Z,1.30
2019-05-13T12:04:11.656Z,1.20
2019-05-13T12:06:48.119Z,1.20
2019-05-13T12:09:13.126Z,1.37
2019-05-13T12:11:40.711Z,1.10
2019-05-13T12:14:34.716Z,1.50
2019-05-13T12:16:42.161Z,1.20
2019-05-13T12:19:11.783Z,1.30
2019-05-13T12:21:43.325Z,1.80
2019-05-13T12:24:11.292Z,1.57
2019-05-13T12:26:43.104Z,1.30
2019-05-13T12:29:17.836Z,1.37
2019-05-13T12:31:40.333Z,1.50
2019-05-13T12:34:12.694Z,1.52
2019-05-13T12:36:42.921Z,1.42
2019-05-13T12:39:13.846Z,1.30
2019-05-13T12:41:42.071Z,1.60
2019-05-13T12:44:12.740Z,1.50
2019-05-13T12:46:41.499Z,1.12
2019-05-13T12:49:13.892Z,1.05
2019-05-13T12:51:43.860Z,1.57
2019-05-13T12:54:13.512Z,1.27
2019-05-13T12:56:42.626Z,1.30
2019-05-13T12:59:13.354Z,1.27
2019-05-13T13:01:41.184Z,1.27
2019-05-13T13:04:12.311Z,1.47
2019-05-13T13:06:44.672Z,1.72
2019-05-13T13:09:12.660Z,1.57
2019-05-13T13:11:43.555Z,1.40
2019-05-13T13:14:15.636Z,1.30
2019-05-13T13:16:42.446Z,1.35
2019-05-13T13:19:14.524Z,1.22
2019-05-13T13:21:41.519Z,1.40
2019-05-13T13:24:12.321Z,1.50
2019-05-13T13:26:42.817Z,1.20
2019-05-13T13:29:11.563Z,1.30
2019-05-13T13:31:43.284Z,1.40
2019-05-13T13:34:16.471Z,1.27
2019-05-13T13:36:46.132Z,1.37
2019-05-13T13:39:14.968Z,1.30
2019-05-13T13:41:43.691Z,1.35
2019-05-13T13:44:12.253Z,1.50
2019-05-13T13:46:44.599Z,1.30
2019-05-13T13:49:13.087Z,1.50
2019-05-13T13:51:44.529Z,1.50
2019-05-13T13:54:11.656Z,1.35
2019-05-13T13:56:44.118Z,1.40
2019-05-13T13:59:13.761Z,1.67
2019-05-13T14:01:40.565Z,1.40
2019-05-13T14:04:09.100Z,1.80
2019-05-13T14:06:25.163Z,1.70
2019-05-13T14:06:28.557Z,1.22
2019-05-13T14:09:07.900Z,1.50
2019-05-13T14:11:36.397Z,1.40
2019-05-13T14:14:05.010Z,1.40
2019-05-13T14:16:35.293Z,1.20
2019-05-13T14:19:03.988Z,2.45
2019-05-13T14:21:32.579Z,1.40
2019-05-13T14:24:02.648Z,1.60
2019-05-13T14:26:33.040Z,1.62
2019-05-13T14:29:02.602Z,1.47
2019-05-13T14:31:32.380Z,1.50
2019-05-13T14:34:03.431Z,1.82
2019-05-13T14:36:31.340Z,1.53
2019-05-13T14:39:02.571Z,1.50
2019-05-13T14:41:31.258Z,1.52
2019-05-13T14:43:59.876Z,2.20
2019-05-13T14:46:45.818Z,1.67
2019-05-13T14:48:58.559Z,1.50
2019-05-13T14:51:27.062Z,1.65
2019-05-13T14:53:55.539Z,1.65
2019-05-13T14:56:24.098Z,2.00
2019-05-13T14:58:52.573Z,1.60
2019-05-13T15:01:22.693Z,1.92
2019-05-13T15:03:52.135Z,1.50
2019-05-13T15:06:22.073Z,1.50
2019-05-13T15:08:52.582Z,1.20
2019-05-13T15:11:21.911Z,1.70
2019-05-13T15:13:51.869Z,1.70
2019-05-13T15:16:22.443Z,1.32
2019-05-13T15:18:52.475Z,1.32
2019-05-13T15:21:21.374Z,1.50
2019-05-13T15:23:51.775Z,1.15
2019-05-13T15:26:22.303Z,1.47
2019-05-13T15:28:51.857Z,1.85
2019-05-13T15:31:22.152Z,1.50
2019-05-13T15:33:52.428Z,1.77
2019-05-13T15:36:22.525Z,1.40
2019-05-13T15:38:52.008Z,1.17
2019-05-13T15:41:20.673Z,1.10
2019-05-13T15:43:51.282Z,1.50
2019-05-13T15:46:21.837Z,1.70
2019-05-13T15:48:51.411Z,1.67
2019-05-13T15:51:22.140Z,1.75
2019-05-13T15:53:51.735Z,1.70
2019-05-13T15:56:22.450Z,1.50
2019-05-13T15:58:52.974Z,1.50
2019-05-13T16:01:22.954Z,1.70
2019-05-13T16:03:52.550Z,1.87
2019-05-13T16:06:21.207Z,1.60
2019-05-13T16:08:51.968Z,1.37
2019-05-13T16:11:21.977Z,1.30
2019-05-13T16:13:51.858Z,1.52
2019-05-13T16:16:22.049Z,1.57
2019-05-13T16:18:51.554Z,1.30
2019-05-13T16:21:20.125Z,1.42
2019-05-13T16:23:48.616Z,1.75
2019-05-13T16:26:17.090Z,1.50
2019-05-13T16:28:45.596Z,1.40
2019-05-13T16:31:14.069Z,2.35
2019-05-13T16:33:42.578Z,1.70
2019-05-13T16:36:12.635Z,1.95
2019-05-13T16:38:43.035Z,1.60
2019-05-13T16:41:12.437Z,1.65
2019-05-13T16:43:42.594Z,1.82
2019-05-13T16:46:12.257Z,1.52
2019-05-13T16:48:41.658Z,1.50
2019-05-13T16:51:12.456Z,1.60
2019-05-13T16:53:42.177Z,1.80
2019-05-13T16:56:25.377Z,1.90
2019-05-13T16:58:41.695Z,1.87
2019-05-13T17:01:11.715Z,1.70
2019-05-13T17:03:41.449Z,1.80
2019-05-13T17:06:12.428Z,1.82
2019-05-13T17:08:42.477Z,1.50
2019-05-13T17:11:11.840Z,2.00
2019-05-13T17:13:42.210Z,1.77
2019-05-13T17:16:10.827Z,1.92
2019-05-13T17:18:41.463Z,1.70
2019-05-13T17:21:09.588Z,2.03
2019-05-13T17:23:38.090Z,6.13
2019-05-13T17:26:06.561Z,2.08
2019-05-13T17:28:35.071Z,1.90
2019-05-13T17:31:03.620Z,1.70
2019-05-13T17:33:32.163Z,1.60
2019-05-13T17:36:01.878Z,1.52
2019-05-13T17:38:32.338Z,1.50
2019-05-13T17:41:02.223Z,1.70
2019-05-13T17:43:31.998Z,2.00
2019-05-13T17:46:00.770Z,1.80
2019-05-13T17:48:32.092Z,1.70
2019-05-13T17:51:01.297Z,1.65
2019-05-13T17:53:32.247Z,1.77
2019-05-13T17:56:02.133Z,1.60
2019-05-13T17:58:31.381Z,1.52
2019-05-13T18:01:01.714Z,2.20
2019-05-13T18:03:32.098Z,1.67
2019-05-13T18:06:02.477Z,2.00
2019-05-13T18:08:32.011Z,1.72
2019-05-13T18:11:02.199Z,1.90
2019-05-13T18:13:31.213Z,1.70
2019-05-13T18:16:02.040Z,2.10
2019-05-13T18:18:40.231Z,1.60
2019-05-13T18:21:01.496Z,2.13
2019-05-13T18:23:30.189Z,2.00
2019-05-13T18:25:58.650Z,2.20
2019-05-13T18:28:31.063Z,2.00
2019-05-13T18:30:57.366Z,2.00
2019-05-13T18:33:25.879Z,2.00
2019-05-13T18:35:54.343Z,2.07
2019-05-13T18:38:22.839Z,2.33
2019-05-13T18:40:52.570Z,2.40
2019-05-13T18:43:21.677Z,2.80
2019-05-13T18:45:51.852Z,2.93
2019-05-13T18:48:21.883Z,2.43
2019-05-13T18:50:52.321Z,2.63
2019-05-13T18:53:21.508Z,3.10
2019-05-13T18:55:52.513Z,3.00
2019-05-13T18:58:22.260Z,2.60
2019-05-13T19:00:52.284Z,2.40
2019-05-13T19:03:21.727Z,2.47
2019-05-13T19:05:50.541Z,2.30
2019-05-13T19:08:21.289Z,2.30
2019-05-13T19:10:49.286Z,2.40
2019-05-13T19:13:17.758Z,2.53
2019-05-13T19:15:46.318Z,2.53
2019-05-13T19:18:14.786Z,2.60
2019-05-13T19:20:43.283Z,2.67
2019-05-13T19:23:11.991Z,2.47
2019-05-13T19:25:42.690Z,2.60
2019-05-13T19:28:11.888Z,3.00
2019-05-13T19:30:41.195Z,2.73
2019-05-13T19:33:11.969Z,3.20
2019-05-13T19:35:42.398Z,3.47
2019-05-13T19:38:12.121Z,4.80
2019-05-13T19:40:42.019Z,5.10
2019-05-13T19:43:11.550Z,5.60
2019-05-13T19:45:41.589Z,6.73
2019-05-13T19:48:11.853Z,7.70
2019-05-13T19:50:41.575Z,5.97
2019-05-13T19:53:12.111Z,5.50
2019-05-13T19:55:41.439Z,4.23
2019-05-13T19:58:12.229Z,3.80
2019-05-13T20:00:42.388Z,3.80
2019-05-13T20:03:11.723Z,3.87
2019-05-13T20:05:41.445Z,3.10
2019-05-13T20:08:10.092Z,3.73
2019-05-13T20:10:38.589Z,3.10
2019-05-13T20:13:07.060Z,3.47
2019-05-13T20:15:35.586Z,2.77
2019-05-13T20:18:04.058Z,2.77
2019-05-13T20:20:32.719Z,2.70
2019-05-13T20:23:01.492Z,3.50
2019-05-13T20:25:31.215Z,3.13
2019-05-13T20:28:02.162Z,2.93
2019-05-13T20:30:30.021Z,3.10
2019-05-13T20:32:58.490Z,3.13
2019-05-13T20:35:26.987Z,2.80
2019-05-13T20:37:55.459Z,2.87
2019-05-13T20:40:24.020Z,2.80
2019-05-13T20:42:52.489Z,3.10
2019-05-13T20:45:22.440Z,2.70
2019-05-13T20:47:51.044Z,2.93
2019-05-13T20:50:21.470Z,2.53
2019-05-13T20:52:51.657Z,3.07
2019-05-13T20:55:22.014Z,3.03
2019-05-13T20:57:52.824Z,2.80
2019-05-13T21:00:20.621Z,2.63
2019-05-13T21:02:51.501Z,2.50
2019-05-13T21:05:21.521Z,2.87
2019-05-13T21:07:51.583Z,2.80
2019-05-13T21:10:21.189Z,3.10
2019-05-13T21:12:51.383Z,3.67
2019-05-13T21:15:20.088Z,2.83
2019-05-13T21:17:48.559Z,3.37
2019-05-13T21:20:22.193Z,3.10
2019-05-13T21:22:47.379Z,3.37
2019-05-13T21:25:15.983Z,3.03
2019-05-13T21:27:44.484Z,3.27
2019-05-13T21:30:13.390Z,3.37
2019-05-13T21:32:41.886Z,3.07
2019-05-13T21:35:11.894Z,3.07
2019-05-13T21:37:40.566Z,3.33
2019-05-13T21:40:11.209Z,3.20
2019-05-13T21:42:41.880Z,3.20
2019-05-13T21:45:11.230Z,3.10
2019-05-13T21:47:39.863Z,3.30
2019-05-13T21:50:08.572Z,2.93
2019-05-13T21:52:37.064Z,3.30
2019-05-13T21:55:06.765Z,2.90
2019-05-13T21:57:35.254Z,2.90
2019-05-13T22:00:07.702Z,3.00
2019-05-13T22:02:36.263Z,2.60
2019-05-13T22:05:04.967Z,2.97
2019-05-13T22:07:33.479Z,2.80
2019-05-13T22:10:02.073Z,2.83
2019-05-13T22:12:31.999Z,2.73
2019-05-13T22:15:01.063Z,2.50
2019-05-13T22:17:31.558Z,3.23
2019-05-13T22:20:01.788Z,2.63
2019-05-13T22:22:32.010Z,2.90
2019-05-13T22:25:01.981Z,3.07
2019-05-13T22:27:30.532Z,2.80
2019-05-13T22:30:01.176Z,3.23
2019-05-13T22:32:29.213Z,2.50
2019-05-13T22:34:57.684Z,2.90
2019-05-13T22:37:26.176Z,2.33
2019-05-13T22:39:54.652Z,2.63
2019-05-13T22:42:23.142Z,2.60
2019-05-13T22:44:52.245Z,2.33
2019-05-13T22:47:21.963Z,2.47
2019-05-13T22:49:50.696Z,2.53
2019-05-13T22:52:21.682Z,2.53
2019-05-13T22:54:51.641Z,2.13
2019-05-13T22:57:21.773Z,2.43
2019-05-13T22:59:51.872Z,2.50
2019-05-13T23:02:21.963Z,2.40
2019-05-13T23:04:51.186Z,2.70
2019-05-13T23:07:22.160Z,2.40
2019-05-13T23:09:51.928Z,2.27
2019-05-13T23:12:21.285Z,2.17
2019-05-13T23:14:51.861Z,2.50
2019-05-13T23:17:21.538Z,2.50
2019-05-13T23:19:52.225Z,2.50
2019-05-13T23:22:20.519Z,2.17
2019-05-13T23:24:48.986Z,2.73
2019-05-13T23:27:17.565Z,2.40
2019-05-13T23:29:46.035Z,2.30
2019-05-13T23:32:14.499Z,2.97
2019-05-13T23:34:42.994Z,2.50
2019-05-13T23:37:11.573Z,2.70
2019-05-13T23:39:41.586Z,2.70
2019-05-13T23:42:12.124Z,2.63
2019-05-13T23:44:41.467Z,2.20
2019-05-13T23:47:11.507Z,2.40
2019-05-13T23:49:42.162Z,2.77
2019-05-13T23:52:11.750Z,2.47
2019-05-13T23:54:42.388Z,2.53
2019-05-13T23:57:11.704Z,2.40
2019-05-13T23:59:41.907Z,2.93
